ACA227 CYYC-CYVR
Flight info
| Callsign | ACA227 |
|---|---|
| Flight time | 1h 2m |
| Altitude | 38000 |
| Route | BOTAG Q894 BOOTH CANUC6 |
| Aircraft | A321/M-SDE3FGHIRWY/LB1 |
Departure
| Time | 2026-05-04 00:14 |
|---|---|
| Airport | Calgary International Airport (CYYC) |
Arrival
| Time | 2026-05-04 01:16 |
|---|---|
| Airport | Vancouver International Airport (CYVR) |
| Time | Latitude | Longitude | Altitude | Speed | Heading |
|---|---|---|---|---|---|
| 2026-05-03 23:53 | 51.13279 | -114.01597 | 3546 ft | 0 kts | 91° |
| 2026-05-04 00:01 | 51.13279 | -114.01607 | 3546 ft | 2 kts | 91° |
| 2026-05-04 00:01 | 51.13279 | -114.01630 | 3546 ft | 2 kts | 91° |
| 2026-05-04 00:02 | 51.13279 | -114.01655 | 3546 ft | 2 kts | 91° |
| 2026-05-04 00:02 | 51.13282 | -114.01678 | 3546 ft | 2 kts | 116° |
| 2026-05-04 00:02 | 51.13290 | -114.01699 | 3546 ft | 2 kts | 134° |
| 2026-05-04 00:02 | 51.13302 | -114.01714 | 3545 ft | 2 kts | 154° |
| 2026-05-04 00:03 | 51.13316 | -114.01721 | 3545 ft | 2 kts | 173° |
| 2026-05-04 00:03 | 51.13324 | -114.01722 | 3545 ft | 1 kts | 184° |
| 2026-05-04 00:03 | 51.13327 | -114.01721 | 3545 ft | 0 kts | 181° |
| 2026-05-04 00:05 | 51.13325 | -114.01721 | 3545 ft | 1 kts | 181° |
| 2026-05-04 00:05 | 51.13311 | -114.01722 | 3545 ft | 2 kts | 181° |
| 2026-05-04 00:05 | 51.13284 | -114.01723 | 3546 ft | 4 kts | 181° |
| 2026-05-04 00:06 | 51.13241 | -114.01724 | 3546 ft | 7 kts | 180° |
| 2026-05-04 00:06 | 51.13180 | -114.01723 | 3548 ft | 9 kts | 180° |
| 2026-05-04 00:06 | 51.13117 | -114.01740 | 3548 ft | 9 kts | 212° |
| 2026-05-04 00:06 | 51.13055 | -114.01798 | 3548 ft | 11 kts | 188° |
| 2026-05-04 00:07 | 51.12965 | -114.01798 | 3548 ft | 14 kts | 179° |
| 2026-05-04 00:07 | 51.12860 | -114.01797 | 3550 ft | 15 kts | 180° |
| 2026-05-04 00:07 | 51.12744 | -114.01798 | 3550 ft | 17 kts | 180° |
| 2026-05-04 00:07 | 51.12613 | -114.01796 | 3550 ft | 20 kts | 179° |
| 2026-05-04 00:08 | 51.12468 | -114.01797 | 3550 ft | 21 kts | 180° |
| 2026-05-04 00:08 | 51.12322 | -114.01798 | 3550 ft | 21 kts | 180° |
| 2026-05-04 00:08 | 51.12169 | -114.01798 | 3550 ft | 22 kts | 180° |
| 2026-05-04 00:08 | 51.12015 | -114.01798 | 3550 ft | 21 kts | 180° |
| 2026-05-04 00:09 | 51.11867 | -114.01798 | 3550 ft | 21 kts | 180° |
| 2026-05-04 00:09 | 51.11718 | -114.01799 | 3550 ft | 21 kts | 180° |
| 2026-05-04 00:09 | 51.11559 | -114.01801 | 3550 ft | 22 kts | 180° |
| 2026-05-04 00:09 | 51.11401 | -114.01798 | 3549 ft | 23 kts | 180° |
| 2026-05-04 00:10 | 51.11229 | -114.01799 | 3548 ft | 25 kts | 180° |
| 2026-05-04 00:10 | 51.11048 | -114.01800 | 3548 ft | 26 kts | 179° |
| 2026-05-04 00:10 | 51.10862 | -114.01798 | 3546 ft | 26 kts | 180° |
| 2026-05-04 00:10 | 51.10673 | -114.01800 | 3542 ft | 27 kts | 180° |
| 2026-05-04 00:11 | 51.10487 | -114.01799 | 3542 ft | 26 kts | 179° |
| 2026-05-04 00:11 | 51.10308 | -114.01800 | 3542 ft | 25 kts | 180° |
| 2026-05-04 00:11 | 51.10138 | -114.01800 | 3542 ft | 24 kts | 178° |
| 2026-05-04 00:11 | 51.09974 | -114.01797 | 3542 ft | 23 kts | 179° |
| 2026-05-04 00:12 | 51.09812 | -114.01799 | 3542 ft | 22 kts | 182° |
| 2026-05-04 00:12 | 51.09705 | -114.01829 | 3542 ft | 14 kts | 223° |
| 2026-05-04 00:12 | 51.09693 | -114.01981 | 3541 ft | 13 kts | 276° |
| 2026-05-04 00:12 | 51.09697 | -114.02100 | 3540 ft | 6 kts | 273° |
| 2026-05-04 00:13 | 51.09725 | -114.02153 | 3539 ft | 7 kts | 355° |
| 2026-05-04 00:13 | 51.09769 | -114.02138 | 3539 ft | 5 kts | 7° |
| 2026-05-04 00:13 | 51.09826 | -114.02136 | 3539 ft | 20 kts | 359° |
| 2026-05-04 00:13 | 51.10215 | -114.02133 | 3539 ft | 90 kts | 0° |
| 2026-05-04 00:14 | 51.11055 | -114.02135 | 3548 ft | 147 kts | 1° |
| 2026-05-04 00:14 | 51.12128 | -114.02138 | 3950 ft | 160 kts | 1° |
| 2026-05-04 00:14 | 51.13283 | -114.02177 | 4643 ft | 163 kts | 359° |
| 2026-05-04 00:14 | 51.14415 | -114.02360 | 5452 ft | 157 kts | 345° |
| 2026-05-04 00:15 | 51.15278 | -114.03576 | 5759 ft | 182 kts | 303° |
| 2026-05-04 00:15 | 51.15441 | -114.05729 | 6033 ft | 212 kts | 266° |
| 2026-05-04 00:15 | 51.15054 | -114.08096 | 6342 ft | 230 kts | 261° |
| 2026-05-04 00:15 | 51.14637 | -114.10695 | 6633 ft | 248 kts | 262° |
| 2026-05-04 00:16 | 51.14205 | -114.13513 | 6905 ft | 269 kts | 261° |
| 2026-05-04 00:16 | 51.13755 | -114.16492 | 7311 ft | 285 kts | 261° |
| 2026-05-04 00:16 | 51.13289 | -114.19553 | 7981 ft | 290 kts | 260° |
| 2026-05-04 00:16 | 51.12817 | -114.22661 | 8818 ft | 289 kts | 259° |
| 2026-05-04 00:17 | 51.12352 | -114.25727 | 9697 ft | 287 kts | 259° |
| 2026-05-04 00:17 | 51.11879 | -114.28858 | 10544 ft | 286 kts | 259° |
| 2026-05-04 00:17 | 51.11386 | -114.32124 | 11088 ft | 298 kts | 259° |
| 2026-05-04 00:17 | 51.10882 | -114.35466 | 11787 ft | 304 kts | 259° |
| 2026-05-04 00:18 | 51.10383 | -114.38773 | 12620 ft | 304 kts | 259° |
| 2026-05-04 00:18 | 51.09878 | -114.42103 | 13467 ft | 304 kts | 259° |
| 2026-05-04 00:18 | 51.09385 | -114.45339 | 14220 ft | 305 kts | 259° |
| 2026-05-04 00:18 | 51.08880 | -114.48640 | 14890 ft | 309 kts | 260° |
| 2026-05-04 00:19 | 51.08377 | -114.51931 | 15538 ft | 312 kts | 261° |
| 2026-05-04 00:19 | 51.07863 | -114.55314 | 16185 ft | 317 kts | 262° |
| 2026-05-04 00:19 | 51.07333 | -114.58785 | 16831 ft | 321 kts | 262° |
| 2026-05-04 00:19 | 51.06787 | -114.62332 | 17457 ft | 325 kts | 263° |
| 2026-05-04 00:20 | 51.06243 | -114.65810 | 18054 ft | 329 kts | 262° |
| 2026-05-04 00:20 | 51.05673 | -114.69443 | 18666 ft | 333 kts | 263° |
| 2026-05-04 00:20 | 51.05107 | -114.73046 | 19264 ft | 336 kts | 263° |
| 2026-05-04 00:20 | 51.04537 | -114.76668 | 19861 ft | 339 kts | 262° |
| 2026-05-04 00:21 | 51.03966 | -114.80271 | 20437 ft | 343 kts | 263° |
| 2026-05-04 00:21 | 51.03368 | -114.83974 | 21053 ft | 345 kts | 263° |
| 2026-05-04 00:21 | 51.02774 | -114.87650 | 21627 ft | 348 kts | 263° |
| 2026-05-04 00:21 | 51.02174 | -114.91363 | 22187 ft | 351 kts | 262° |
| 2026-05-04 00:22 | 51.01564 | -114.95130 | 22724 ft | 355 kts | 262° |
| 2026-05-04 00:22 | 51.00952 | -114.98897 | 23234 ft | 359 kts | 263° |
| 2026-05-04 00:22 | 51.00331 | -115.02718 | 23792 ft | 361 kts | 262° |
| 2026-05-04 00:22 | 50.99702 | -115.06567 | 24298 ft | 364 kts | 263° |
| 2026-05-04 00:23 | 50.99066 | -115.10466 | 24819 ft | 367 kts | 262° |
| 2026-05-04 00:23 | 50.98428 | -115.14372 | 25282 ft | 370 kts | 262° |
| 2026-05-04 00:23 | 50.97778 | -115.18334 | 25733 ft | 374 kts | 262° |
| 2026-05-04 00:23 | 50.97116 | -115.22347 | 26195 ft | 377 kts | 262° |
| 2026-05-04 00:24 | 50.96457 | -115.26348 | 26653 ft | 380 kts | 262° |
| 2026-05-04 00:24 | 50.95787 | -115.30398 | 27122 ft | 382 kts | 262° |
| 2026-05-04 00:24 | 50.95116 | -115.34444 | 27580 ft | 384 kts | 262° |
| 2026-05-04 00:24 | 50.94433 | -115.38560 | 28001 ft | 387 kts | 262° |
| 2026-05-04 00:25 | 50.93754 | -115.42645 | 28378 ft | 391 kts | 262° |
| 2026-05-04 00:25 | 50.93055 | -115.46842 | 28752 ft | 394 kts | 262° |
| 2026-05-04 00:25 | 50.92352 | -115.51053 | 29178 ft | 396 kts | 262° |
| 2026-05-04 00:25 | 50.91647 | -115.55249 | 29580 ft | 398 kts | 262° |
| 2026-05-04 00:26 | 50.90931 | -115.59507 | 29931 ft | 401 kts | 262° |
| 2026-05-04 00:26 | 50.90212 | -115.63783 | 30304 ft | 404 kts | 262° |
| 2026-05-04 00:26 | 50.89477 | -115.68123 | 30684 ft | 406 kts | 262° |
| 2026-05-04 00:26 | 50.88749 | -115.72414 | 30995 ft | 409 kts | 262° |
| 2026-05-04 00:27 | 50.88018 | -115.76731 | 31334 ft | 411 kts | 262° |
| 2026-05-04 00:27 | 50.87269 | -115.81132 | 31638 ft | 414 kts | 262° |
| 2026-05-04 00:27 | 50.86524 | -115.85508 | 31941 ft | 417 kts | 262° |
| 2026-05-04 00:27 | 50.85767 | -115.89943 | 32239 ft | 419 kts | 262° |
| 2026-05-04 00:28 | 50.85002 | -115.94394 | 32537 ft | 421 kts | 262° |
| 2026-05-04 00:28 | 50.84223 | -115.98930 | 32828 ft | 424 kts | 262° |
| 2026-05-04 00:28 | 50.83449 | -116.03419 | 33127 ft | 425 kts | 262° |
| 2026-05-04 00:28 | 50.82659 | -116.07986 | 33537 ft | 424 kts | 262° |
| 2026-05-04 00:29 | 50.81880 | -116.12476 | 33947 ft | 423 kts | 262° |
| 2026-05-04 00:29 | 50.81101 | -116.16964 | 34287 ft | 423 kts | 262° |
| 2026-05-04 00:29 | 50.80325 | -116.21425 | 34603 ft | 423 kts | 262° |
| 2026-05-04 00:29 | 50.79547 | -116.25891 | 34874 ft | 424 kts | 262° |
| 2026-05-04 00:30 | 50.78772 | -116.30331 | 35175 ft | 423 kts | 262° |
| 2026-05-04 00:30 | 50.77991 | -116.34799 | 35460 ft | 423 kts | 262° |
| 2026-05-04 00:30 | 50.77202 | -116.39284 | 35774 ft | 422 kts | 262° |
| 2026-05-04 00:30 | 50.76423 | -116.43709 | 36045 ft | 421 kts | 262° |
| 2026-05-04 00:31 | 50.75632 | -116.48141 | 36301 ft | 421 kts | 261° |
| 2026-05-04 00:31 | 50.74790 | -116.52566 | 36523 ft | 423 kts | 261° |
| 2026-05-04 00:31 | 50.73930 | -116.56979 | 36710 ft | 424 kts | 261° |
| 2026-05-04 00:31 | 50.73064 | -116.61401 | 36942 ft | 425 kts | 260° |
| 2026-05-04 00:32 | 50.72187 | -116.65877 | 37162 ft | 426 kts | 259° |
| 2026-05-04 00:32 | 50.71297 | -116.70426 | 37354 ft | 427 kts | 260° |
| 2026-05-04 00:32 | 50.70428 | -116.74869 | 37510 ft | 429 kts | 259° |
| 2026-05-04 00:32 | 50.69541 | -116.79402 | 37709 ft | 430 kts | 259° |
| 2026-05-04 00:33 | 50.68654 | -116.83916 | 37875 ft | 432 kts | 259° |
| 2026-05-04 00:33 | 50.66865 | -116.92998 | 38075 ft | 433 kts | 260° |
| 2026-05-04 00:34 | 50.65074 | -117.02065 | 38072 ft | 435 kts | 259° |
| 2026-05-04 00:34 | 50.63265 | -117.11163 | 38062 ft | 435 kts | 259° |
| 2026-05-04 00:35 | 50.61457 | -117.20223 | 38067 ft | 437 kts | 259° |
| 2026-05-04 00:35 | 50.59639 | -117.29296 | 38068 ft | 437 kts | 259° |
| 2026-05-04 00:36 | 50.57789 | -117.38479 | 38076 ft | 438 kts | 259° |
| 2026-05-04 00:36 | 50.55951 | -117.47562 | 38074 ft | 438 kts | 259° |
| 2026-05-04 00:37 | 50.54102 | -117.56655 | 38072 ft | 438 kts | 259° |
| 2026-05-04 00:37 | 50.52245 | -117.65752 | 38066 ft | 439 kts | 259° |
| 2026-05-04 00:38 | 50.50376 | -117.74864 | 38033 ft | 440 kts | 258° |
| 2026-05-04 00:38 | 50.48500 | -117.83966 | 38013 ft | 441 kts | 259° |
| 2026-05-04 00:39 | 50.46614 | -117.93085 | 38004 ft | 443 kts | 258° |
| 2026-05-04 00:39 | 50.44695 | -118.02308 | 38001 ft | 443 kts | 259° |
| 2026-05-04 00:40 | 50.42757 | -118.11574 | 38019 ft | 443 kts | 259° |
| 2026-05-04 00:40 | 50.40845 | -118.20676 | 38049 ft | 443 kts | 259° |
| 2026-05-04 00:41 | 50.38924 | -118.29793 | 38067 ft | 444 kts | 259° |
| 2026-05-04 00:41 | 50.36974 | -118.39001 | 38047 ft | 444 kts | 259° |
| 2026-05-04 00:42 | 50.35037 | -118.48099 | 38071 ft | 443 kts | 259° |
| 2026-05-04 00:42 | 50.33080 | -118.57260 | 38019 ft | 444 kts | 259° |
| 2026-05-04 00:43 | 50.31123 | -118.66377 | 37997 ft | 446 kts | 258° |
| 2026-05-04 00:43 | 50.29142 | -118.75571 | 37985 ft | 447 kts | 258° |
| 2026-05-04 00:44 | 50.27156 | -118.84746 | 37998 ft | 448 kts | 258° |
| 2026-05-04 00:44 | 50.25166 | -118.93886 | 38005 ft | 448 kts | 258° |
| 2026-05-04 00:45 | 50.23157 | -119.03084 | 38019 ft | 449 kts | 258° |
| 2026-05-04 00:45 | 50.21145 | -119.12253 | 38028 ft | 449 kts | 258° |
| 2026-05-04 00:46 | 50.19130 | -119.21384 | 38014 ft | 449 kts | 258° |
| 2026-05-04 00:46 | 50.17094 | -119.30590 | 38010 ft | 449 kts | 258° |
| 2026-05-04 00:47 | 50.15057 | -119.39746 | 38009 ft | 451 kts | 258° |
| 2026-05-04 00:47 | 50.12997 | -119.48965 | 38003 ft | 453 kts | 259° |
| 2026-05-04 00:48 | 50.10919 | -119.58232 | 38023 ft | 453 kts | 258° |
| 2026-05-04 00:48 | 50.08836 | -119.67466 | 38056 ft | 452 kts | 258° |
| 2026-05-04 00:49 | 50.06754 | -119.76669 | 38085 ft | 454 kts | 258° |
| 2026-05-04 00:49 | 50.04659 | -119.85889 | 38097 ft | 456 kts | 258° |
| 2026-05-04 00:50 | 50.02517 | -119.95277 | 38091 ft | 457 kts | 258° |
| 2026-05-04 00:50 | 50.00358 | -120.04699 | 38088 ft | 457 kts | 257° |
| 2026-05-04 00:51 | 49.98183 | -120.14132 | 37298 ft | 461 kts | 258° |
| 2026-05-04 00:51 | 49.97099 | -120.18840 | 36196 ft | 468 kts | 258° |
| 2026-05-04 00:51 | 49.95996 | -120.23616 | 35194 ft | 473 kts | 258° |
| 2026-05-04 00:51 | 49.94877 | -120.28439 | 34226 ft | 476 kts | 257° |
| 2026-05-04 00:52 | 49.93755 | -120.33268 | 33478 ft | 476 kts | 257° |
| 2026-05-04 00:52 | 49.92621 | -120.38135 | 32778 ft | 474 kts | 256° |
| 2026-05-04 00:52 | 49.91508 | -120.42893 | 32192 ft | 469 kts | 256° |
| 2026-05-04 00:52 | 49.90401 | -120.47586 | 31804 ft | 461 kts | 256° |
| 2026-05-04 00:53 | 49.89319 | -120.52173 | 31402 ft | 452 kts | 256° |
| 2026-05-04 00:53 | 49.88257 | -120.56679 | 30948 ft | 445 kts | 256° |
| 2026-05-04 00:53 | 49.87208 | -120.61133 | 30488 ft | 439 kts | 256° |
| 2026-05-04 00:53 | 49.86166 | -120.65548 | 30054 ft | 433 kts | 255° |
| 2026-05-04 00:54 | 49.85151 | -120.69832 | 29643 ft | 425 kts | 255° |
| 2026-05-04 00:54 | 49.84130 | -120.74137 | 29218 ft | 420 kts | 255° |
| 2026-05-04 00:54 | 49.83138 | -120.78315 | 28799 ft | 414 kts | 254° |
| 2026-05-04 00:54 | 49.82154 | -120.82449 | 28359 ft | 409 kts | 254° |
| 2026-05-04 00:55 | 49.81179 | -120.86528 | 27918 ft | 405 kts | 254° |
| 2026-05-04 00:55 | 49.80210 | -120.90588 | 27476 ft | 401 kts | 254° |
| 2026-05-04 00:55 | 49.79246 | -120.94611 | 27035 ft | 397 kts | 254° |
| 2026-05-04 00:55 | 49.78287 | -120.98614 | 26593 ft | 392 kts | 254° |
| 2026-05-04 00:56 | 49.77349 | -121.02524 | 26151 ft | 389 kts | 254° |
| 2026-05-04 00:56 | 49.76416 | -121.06401 | 25722 ft | 385 kts | 254° |
| 2026-05-04 00:56 | 49.75491 | -121.10239 | 25304 ft | 381 kts | 253° |
| 2026-05-04 00:56 | 49.74575 | -121.14030 | 24885 ft | 378 kts | 253° |
| 2026-05-04 00:57 | 49.73665 | -121.17796 | 24455 ft | 375 kts | 253° |
| 2026-05-04 00:57 | 49.72754 | -121.21552 | 24024 ft | 372 kts | 253° |
| 2026-05-04 00:57 | 49.71848 | -121.25279 | 23609 ft | 368 kts | 253° |
| 2026-05-04 00:57 | 49.70956 | -121.28941 | 23196 ft | 365 kts | 253° |
| 2026-05-04 00:58 | 49.70069 | -121.32588 | 22791 ft | 362 kts | 253° |
| 2026-05-04 00:58 | 49.69186 | -121.36208 | 22365 ft | 359 kts | 253° |
| 2026-05-04 00:58 | 49.68296 | -121.39851 | 21920 ft | 357 kts | 253° |
| 2026-05-04 00:58 | 49.67424 | -121.43416 | 21481 ft | 355 kts | 253° |
| 2026-05-04 00:59 | 49.66544 | -121.47002 | 21032 ft | 354 kts | 253° |
| 2026-05-04 00:59 | 49.65682 | -121.50507 | 20590 ft | 352 kts | 253° |
| 2026-05-04 00:59 | 49.64817 | -121.54025 | 20141 ft | 351 kts | 252° |
| 2026-05-04 00:59 | 49.63947 | -121.57555 | 19694 ft | 350 kts | 252° |
| 2026-05-04 01:00 | 49.63089 | -121.61028 | 19245 ft | 348 kts | 252° |
| 2026-05-04 01:00 | 49.62235 | -121.64482 | 18819 ft | 347 kts | 252° |
| 2026-05-04 01:00 | 49.61362 | -121.68002 | 18365 ft | 346 kts | 252° |
| 2026-05-04 01:00 | 49.60496 | -121.71490 | 17922 ft | 345 kts | 251° |
| 2026-05-04 01:01 | 49.59635 | -121.74962 | 17485 ft | 344 kts | 251° |
| 2026-05-04 01:01 | 49.58789 | -121.78371 | 17056 ft | 343 kts | 251° |
| 2026-05-04 01:01 | 49.57921 | -121.81856 | 16616 ft | 342 kts | 251° |
| 2026-05-04 01:01 | 49.57076 | -121.85241 | 16158 ft | 342 kts | 251° |
| 2026-05-04 01:02 | 49.56226 | -121.88644 | 15697 ft | 342 kts | 251° |
| 2026-05-04 01:02 | 49.55364 | -121.92093 | 15229 ft | 342 kts | 251° |
| 2026-05-04 01:02 | 49.54519 | -121.95464 | 14769 ft | 342 kts | 251° |
| 2026-05-04 01:02 | 49.53659 | -121.98884 | 14315 ft | 342 kts | 251° |
| 2026-05-04 01:03 | 49.52792 | -122.02270 | 13873 ft | 341 kts | 249° |
| 2026-05-04 01:03 | 49.51778 | -122.05547 | 13440 ft | 341 kts | 244° |
| 2026-05-04 01:03 | 49.50585 | -122.08711 | 12993 ft | 341 kts | 240° |
| 2026-05-04 01:03 | 49.49340 | -122.11808 | 12537 ft | 339 kts | 239° |
| 2026-05-04 01:04 | 49.48103 | -122.14864 | 12135 ft | 336 kts | 239° |
| 2026-05-04 01:04 | 49.46868 | -122.17921 | 11704 ft | 334 kts | 239° |
| 2026-05-04 01:04 | 49.45662 | -122.20947 | 11290 ft | 332 kts | 239° |
| 2026-05-04 01:04 | 49.44457 | -122.23988 | 10871 ft | 330 kts | 239° |
| 2026-05-04 01:05 | 49.43276 | -122.26966 | 10650 ft | 314 kts | 239° |
| 2026-05-04 01:05 | 49.42175 | -122.29733 | 10515 ft | 291 kts | 239° |
| 2026-05-04 01:05 | 49.41140 | -122.32334 | 10371 ft | 277 kts | 239° |
| 2026-05-04 01:05 | 49.40085 | -122.34770 | 10258 ft | 268 kts | 234° |
| 2026-05-04 01:06 | 49.38903 | -122.37022 | 9969 ft | 268 kts | 230° |
| 2026-05-04 01:06 | 49.37679 | -122.39151 | 9648 ft | 268 kts | 229° |
| 2026-05-04 01:06 | 49.36433 | -122.41295 | 9316 ft | 269 kts | 229° |
| 2026-05-04 01:06 | 49.35182 | -122.43446 | 8985 ft | 269 kts | 229° |
| 2026-05-04 01:07 | 49.33940 | -122.45563 | 8656 ft | 269 kts | 228° |
| 2026-05-04 01:07 | 49.32691 | -122.47684 | 8331 ft | 268 kts | 228° |
| 2026-05-04 01:07 | 49.31449 | -122.49795 | 8032 ft | 266 kts | 229° |
| 2026-05-04 01:07 | 49.30210 | -122.51901 | 7715 ft | 265 kts | 229° |
| 2026-05-04 01:08 | 49.28979 | -122.53994 | 7406 ft | 264 kts | 229° |
| 2026-05-04 01:08 | 49.27752 | -122.56085 | 7081 ft | 264 kts | 229° |
| 2026-05-04 01:08 | 49.26533 | -122.58169 | 6771 ft | 264 kts | 229° |
| 2026-05-04 01:08 | 49.25317 | -122.60245 | 6426 ft | 263 kts | 229° |
| 2026-05-04 01:09 | 49.24087 | -122.62341 | 6114 ft | 262 kts | 229° |
| 2026-05-04 01:09 | 49.22882 | -122.64396 | 5787 ft | 262 kts | 229° |
| 2026-05-04 01:09 | 49.21659 | -122.66481 | 5471 ft | 260 kts | 229° |
| 2026-05-04 01:09 | 49.20506 | -122.68720 | 5167 ft | 258 kts | 235° |
| 2026-05-04 01:10 | 49.19541 | -122.70999 | 4858 ft | 257 kts | 238° |
| 2026-05-04 01:10 | 49.18623 | -122.73279 | 4546 ft | 248 kts | 239° |
| 2026-05-04 01:10 | 49.17742 | -122.75473 | 4263 ft | 239 kts | 239° |
| 2026-05-04 01:10 | 49.16871 | -122.77637 | 4002 ft | 234 kts | 239° |
| 2026-05-04 01:11 | 49.16249 | -122.79809 | 3947 ft | 218 kts | 259° |
| 2026-05-04 01:11 | 49.16148 | -122.82072 | 3975 ft | 213 kts | 275° |
| 2026-05-04 01:11 | 49.16354 | -122.84304 | 3949 ft | 213 kts | 283° |
| 2026-05-04 01:11 | 49.16672 | -122.86517 | 3715 ft | 211 kts | 284° |
| 2026-05-04 01:12 | 49.16972 | -122.88682 | 3452 ft | 210 kts | 283° |
| 2026-05-04 01:12 | 49.17240 | -122.90847 | 3271 ft | 201 kts | 282° |
| 2026-05-04 01:12 | 49.17475 | -122.92921 | 2993 ft | 196 kts | 281° |
| 2026-05-04 01:12 | 49.17696 | -122.94942 | 2718 ft | 192 kts | 281° |
| 2026-05-04 01:13 | 49.17913 | -122.96939 | 2442 ft | 187 kts | 282° |
| 2026-05-04 01:13 | 49.18124 | -122.98862 | 2180 ft | 181 kts | 282° |
| 2026-05-04 01:13 | 49.18328 | -123.00717 | 1946 ft | 171 kts | 282° |
| 2026-05-04 01:13 | 49.18517 | -123.02428 | 1737 ft | 153 kts | 282° |
| 2026-05-04 01:14 | 49.18687 | -123.03953 | 1522 ft | 138 kts | 282° |
| 2026-05-04 01:14 | 49.18847 | -123.05370 | 1352 ft | 134 kts | 282° |
| 2026-05-04 01:14 | 49.19006 | -123.06772 | 1193 ft | 133 kts | 282° |
| 2026-05-04 01:14 | 49.19161 | -123.08157 | 1036 ft | 133 kts | 282° |
| 2026-05-04 01:15 | 49.19310 | -123.09551 | 880 ft | 132 kts | 281° |
| 2026-05-04 01:15 | 49.19463 | -123.10937 | 686 ft | 132 kts | 282° |
| 2026-05-04 01:15 | 49.19634 | -123.12293 | 493 ft | 130 kts | 282° |
| 2026-05-04 01:15 | 49.19794 | -123.13655 | 324 ft | 130 kts | 280° |
| 2026-05-04 01:16 | 49.19936 | -123.15009 | 161 ft | 129 kts | 281° |
| 2026-05-04 01:16 | 49.20089 | -123.16361 | 26 ft | 127 kts | 280° |
| 2026-05-04 01:16 | 49.20227 | -123.17529 | 19 ft | 89 kts | 280° |
| 2026-05-04 01:16 | 49.20302 | -123.18187 | 19 ft | 29 kts | 279° |
| 2026-05-04 01:17 | 49.20295 | -123.18483 | 19 ft | 26 kts | 254° |
| 2026-05-04 01:17 | 49.20239 | -123.18743 | 19 ft | 21 kts | 250° |
| 2026-05-04 01:17 | 49.20214 | -123.18847 | 19 ft | 9 kts | 242° |
| 2026-05-04 01:17 | 49.20173 | -123.18860 | 19 ft | 7 kts | 139° |
| 2026-05-04 01:18 | 49.20151 | -123.18777 | 18 ft | 9 kts | 103° |
| 2026-05-04 01:18 | 49.20141 | -123.18668 | 18 ft | 10 kts | 98° |
| 2026-05-04 01:18 | 49.20129 | -123.18548 | 18 ft | 12 kts | 101° |
| 2026-05-04 01:18 | 49.20113 | -123.18414 | 18 ft | 13 kts | 100° |
| 2026-05-04 01:19 | 49.20095 | -123.18266 | 17 ft | 14 kts | 100° |
| 2026-05-04 01:19 | 49.20077 | -123.18110 | 18 ft | 14 kts | 100° |
| 2026-05-04 01:19 | 49.20060 | -123.17955 | 18 ft | 15 kts | 100° |
| 2026-05-04 01:19 | 49.20040 | -123.17780 | 16 ft | 17 kts | 99° |
| 2026-05-04 01:20 | 49.20020 | -123.17598 | 16 ft | 13 kts | 100° |
| 2026-05-04 01:20 | 49.20005 | -123.17473 | 16 ft | 7 kts | 101° |
| 2026-05-04 01:20 | 49.19984 | -123.17400 | 15 ft | 8 kts | 150° |
| 2026-05-04 01:20 | 49.19935 | -123.17384 | 15 ft | 6 kts | 169° |
| 2026-05-04 01:21 | 49.19894 | -123.17383 | 15 ft | 5 kts | 187° |
| 2026-05-04 01:21 | 49.19864 | -123.17388 | 15 ft | 3 kts | 187° |
| 2026-05-04 01:21 | 49.19855 | -123.17390 | 15 ft | 0 kts | 187° |